createdAt,value
2018-12-16T00:01:15.785Z,82.26
2018-12-16T00:03:41.676Z,81.70
2018-12-16T00:06:07.574Z,81.99
2018-12-16T00:08:33.437Z,82.22
2018-12-16T00:11:02.761Z,82.30
2018-12-16T00:13:28.733Z,82.03
2018-12-16T00:15:54.630Z,81.38
2018-12-16T00:18:20.522Z,81.50
2018-12-16T00:20:46.448Z,81.80
2018-12-16T00:23:13.092Z,82.17
2018-12-16T00:25:38.963Z,82.15
2018-12-16T00:28:07.672Z,82.14
2018-12-16T00:30:33.569Z,82.52
2018-12-16T00:32:59.630Z,82.23
2018-12-16T00:35:28.717Z,82.64
2018-12-16T00:37:57.913Z,82.77
2018-12-16T00:40:23.760Z,81.57
2018-12-16T00:42:52.821Z,81.84
2018-12-16T00:45:19.288Z,81.42
2018-12-16T00:47:48.471Z,81.53
2018-12-16T00:50:14.373Z,81.45
2018-12-16T00:52:40.263Z,81.67
2018-12-16T00:55:06.294Z,81.11
2018-12-16T00:57:32.163Z,80.37
2018-12-16T00:59:59.290Z,80.54
2018-12-16T01:02:31.509Z,81.05
2018-12-16T01:04:57.428Z,80.62
2018-12-16T01:07:23.379Z,80.92
2018-12-16T01:09:49.277Z,80.85
2018-12-16T01:12:15.145Z,80.68
2018-12-16T01:14:44.803Z,81.87
2018-12-16T01:17:10.703Z,81.23
2018-12-16T01:19:38.383Z,81.39
2018-12-16T01:22:04.309Z,81.47
2018-12-16T01:24:33.322Z,81.07
2018-12-16T01:26:59.194Z,80.70
2018-12-16T01:29:25.076Z,80.79
2018-12-16T01:31:50.949Z,80.20
2018-12-16T01:34:16.912Z,80.61
2018-12-16T01:36:45.983Z,80.67
2018-12-16T01:39:11.868Z,80.95
2018-12-16T01:41:39.476Z,80.68
2018-12-16T01:44:05.341Z,80.49
2018-12-16T01:46:34.563Z,80.92
2018-12-16T01:49:00.427Z,80.39
2018-12-16T01:51:29.439Z,80.14
2018-12-16T01:53:55.324Z,79.94
2018-12-16T01:56:23.119Z,79.80
2018-12-16T01:58:49.036Z,79.73
2018-12-16T02:01:20.131Z,79.99
2018-12-16T02:03:46.035Z,80.79
2018-12-16T02:06:11.952Z,80.54
2018-12-16T02:08:37.954Z,80.64
2018-12-16T02:11:03.890Z,80.44
2018-12-16T02:13:29.788Z,80.64
2018-12-16T02:15:56.180Z,80.58
2018-12-16T02:18:26.061Z,80.67
2018-12-16T02:20:52.300Z,80.93
2018-12-16T02:23:18.766Z,80.23
2018-12-16T02:25:44.692Z,80.25
2018-12-16T02:28:13.174Z,79.91
2018-12-16T02:30:39.059Z,79.27
2018-12-16T02:33:07.933Z,79.87
2018-12-16T02:35:33.807Z,79.77
2018-12-16T02:38:03.567Z,80.55
2018-12-16T02:40:29.463Z,80.10
2018-12-16T02:42:55.530Z,79.95
2018-12-16T02:45:21.417Z,80.62
2018-12-16T02:47:47.654Z,80.80
2018-12-16T02:50:14.799Z,80.90
2018-12-16T02:52:40.652Z,80.57
2018-12-16T02:55:09.412Z,80.28
2018-12-16T02:57:35.331Z,80.75
2018-12-16T03:00:04.528Z,80.60
2018-12-16T03:02:30.446Z,80.43
2018-12-16T03:04:59.937Z,80.79
2018-12-16T03:07:25.830Z,80.02
2018-12-16T03:09:55.221Z,79.97
2018-12-16T03:12:21.192Z,80.54
2018-12-16T03:14:48.971Z,79.69
2018-12-16T03:17:15.325Z,79.22
2018-12-16T03:19:41.168Z,79.25
2018-12-16T03:22:07.387Z,79.02
2018-12-16T03:24:33.298Z,79.27
2018-12-16T03:27:01.064Z,78.92
2018-12-16T03:29:26.977Z,79.41
2018-12-16T03:31:56.179Z,79.82
2018-12-16T03:34:22.154Z,78.92
2018-12-16T03:36:49.947Z,79.66
2018-12-16T03:39:15.848Z,79.20
2018-12-16T03:41:45.641Z,79.12
2018-12-16T03:44:11.589Z,80.49
2018-12-16T03:46:39.489Z,81.30
2018-12-16T03:49:05.386Z,81.60
2018-12-16T03:51:35.262Z,82.55
2018-12-16T03:54:01.155Z,84.02
2018-12-16T03:56:27.041Z,85.67
2018-12-16T03:59:05.416Z,86.65
2018-12-16T04:01:31.304Z,87.50
2018-12-16T04:03:57.204Z,87.93
2018-12-16T04:06:23.094Z,88.83
2018-12-16T04:08:48.959Z,89.15
2018-12-16T04:11:14.830Z,90.09
2018-12-16T04:13:40.704Z,91.22
2018-12-16T04:16:06.692Z,91.87
2018-12-16T04:18:32.576Z,93.13
2018-12-16T04:20:58.423Z,93.63
2018-12-16T04:23:27.605Z,94.10
2018-12-16T04:25:52.231Z,94.65
2018-12-16T04:28:19.558Z,95.07
2018-12-16T04:30:45.485Z,95.30
2018-12-16T04:33:11.390Z,95.89
2018-12-16T04:35:37.308Z,96.27
2018-12-16T04:38:03.258Z,96.54
2018-12-16T04:40:32.237Z,96.85
2018-12-16T04:42:58.134Z,96.57
2018-12-16T04:45:25.857Z,96.83
2018-12-16T04:47:51.798Z,97.30
2018-12-16T04:50:20.654Z,97.74
2018-12-16T04:52:46.538Z,97.96
2018-12-16T04:55:16.399Z,98.27
2018-12-16T04:57:42.293Z,98.92
2018-12-16T05:00:10.137Z,99.52
2018-12-16T05:02:36.053Z,99.51
2018-12-16T05:05:05.928Z,99.39
2018-12-16T05:07:31.820Z,99.29
2018-12-16T05:10:05.923Z,99.60
2018-12-16T05:12:31.782Z,99.25
2018-12-16T05:14:57.684Z,98.97
2018-12-16T05:17:23.644Z,98.70
2018-12-16T05:19:49.515Z,98.07
2018-12-16T05:22:15.418Z,98.75
2018-12-16T05:24:41.344Z,98.96
2018-12-16T05:27:07.471Z,99.08
2018-12-16T05:29:33.456Z,99.08
2018-12-16T05:32:00.496Z,98.46
2018-12-16T05:34:26.374Z,98.60
2018-12-16T05:36:55.894Z,97.77
2018-12-16T05:39:21.790Z,97.92
2018-12-16T05:41:49.767Z,97.85
2018-12-16T05:44:15.657Z,97.60
2018-12-16T05:46:41.593Z,96.87
2018-12-16T05:49:07.502Z,96.19
2018-12-16T05:51:33.371Z,95.68
2018-12-16T05:54:02.514Z,95.93
2018-12-16T05:56:28.388Z,95.20
2018-12-16T05:58:56.032Z,95.29
2018-12-16T06:01:22.025Z,94.66
2018-12-16T06:03:50.744Z,94.37
2018-12-16T06:06:16.652Z,94.44
2018-12-16T06:08:45.500Z,94.31
2018-12-16T06:11:11.385Z,94.33
2018-12-16T06:13:40.994Z,94.48
2018-12-16T06:16:06.931Z,94.07
2018-12-16T06:18:36.731Z,94.32
2018-12-16T06:21:02.620Z,94.63
2018-12-16T06:23:28.515Z,94.66
2018-12-16T06:25:54.372Z,94.73
2018-12-16T06:28:21.366Z,94.43
2018-12-16T06:30:47.619Z,94.33
2018-12-16T06:33:13.527Z,94.21
2018-12-16T06:35:42.770Z,94.19
2018-12-16T06:38:08.629Z,94.04
2018-12-16T06:40:36.379Z,94.08
2018-12-16T06:43:02.381Z,94.04
2018-12-16T06:45:31.181Z,93.73
2018-12-16T06:47:57.053Z,94.21
2018-12-16T06:50:25.726Z,94.25
2018-12-16T06:52:51.598Z,94.17
2018-12-16T06:55:20.361Z,93.90
2018-12-16T06:57:46.227Z,94.12
2018-12-16T07:00:12.419Z,93.63
2018-12-16T07:02:38.324Z,93.97
2018-12-16T07:05:04.448Z,93.82
2018-12-16T07:07:32.268Z,94.20
2018-12-16T07:09:58.143Z,93.93
2018-12-16T07:12:27.350Z,93.99
2018-12-16T07:14:53.379Z,94.03
2018-12-16T07:17:22.718Z,93.65
2018-12-16T07:19:48.682Z,93.65
2018-12-16T07:22:16.255Z,93.58
2018-12-16T07:24:42.186Z,94.41
2018-12-16T07:27:10.672Z,94.10
2018-12-16T07:29:36.616Z,94.51
2018-12-16T07:32:05.428Z,93.62
2018-12-16T07:34:31.420Z,93.78
2018-12-16T07:36:57.295Z,93.80
2018-12-16T07:39:23.207Z,92.70
2018-12-16T07:41:49.103Z,93.10
2018-12-16T07:44:17.920Z,93.76
2018-12-16T07:46:43.826Z,93.79
2018-12-16T07:49:13.351Z,94.29
2018-12-16T07:51:39.377Z,94.21
2018-12-16T07:54:07.028Z,94.19
2018-12-16T07:56:32.978Z,94.31
2018-12-16T07:59:01.472Z,94.53
2018-12-16T08:01:27.472Z,94.83
2018-12-16T08:03:56.528Z,94.98
2018-12-16T08:06:22.424Z,95.06
2018-12-16T08:08:52.011Z,95.49
2018-12-16T08:11:18.106Z,95.87
2018-12-16T08:13:44.213Z,95.99
2018-12-16T08:16:10.100Z,96.46
2018-12-16T08:18:36.004Z,96.70
2018-12-16T08:21:03.317Z,96.55
2018-12-16T08:23:29.252Z,96.66
2018-12-16T08:25:59.029Z,96.76
2018-12-16T08:28:24.975Z,97.12
2018-12-16T08:30:53.987Z,97.74
2018-12-16T08:33:19.990Z,97.83
2018-12-16T08:35:47.641Z,97.67
2018-12-16T08:38:13.557Z,98.32
2018-12-16T08:40:43.274Z,98.38
2018-12-16T08:43:09.176Z,98.71
2018-12-16T08:45:36.862Z,98.91
2018-12-16T08:48:02.882Z,98.87
2018-12-16T08:50:28.902Z,99.37
2018-12-16T08:52:54.778Z,98.77
2018-12-16T08:55:20.680Z,99.36
2018-12-16T08:57:48.560Z,99.31
2018-12-16T09:00:14.498Z,99.60
2018-12-16T09:02:44.260Z,99.30
2018-12-16T09:05:10.140Z,98.62
2018-12-16T09:07:37.951Z,98.06
2018-12-16T09:10:08.075Z,97.13
2018-12-16T09:12:34.139Z,96.60
2018-12-16T09:15:00.218Z,95.49
2018-12-16T09:17:27.622Z,93.68
2018-12-16T09:19:53.544Z,89.48
2018-12-16T09:22:23.309Z,86.95
2018-12-16T09:24:49.223Z,86.94
2018-12-16T09:27:15.175Z,86.65
2018-12-16T09:29:41.143Z,86.66
2018-12-16T09:32:07.009Z,86.39
2018-12-16T09:34:34.005Z,87.40
2018-12-16T09:36:59.912Z,88.70
2018-12-16T09:39:29.708Z,88.16
2018-12-16T09:41:58.371Z,86.78
2018-12-16T09:44:24.350Z,83.58
2018-12-16T09:46:50.255Z,77.06
2018-12-16T09:49:18.034Z,74.87
2018-12-16T09:51:49.718Z,75.72
2018-12-16T09:54:15.739Z,76.93
2018-12-16T09:56:41.780Z,78.07
2018-12-16T09:59:07.664Z,78.43
2018-12-16T10:01:33.562Z,78.43
2018-12-16T10:03:59.427Z,73.62
2018-12-16T10:06:25.970Z,74.35
2018-12-16T10:08:51.873Z,75.54
2018-12-16T10:11:18.684Z,73.76
2018-12-16T10:13:44.666Z,70.15
2018-12-16T10:16:14.334Z,71.34
2018-12-16T10:18:40.243Z,71.64
2018-12-16T10:21:08.559Z,70.99
2018-12-16T10:23:34.447Z,70.00
2018-12-16T10:26:03.821Z,65.29
2018-12-16T10:28:29.690Z,60.44
2018-12-16T10:30:57.524Z,56.96
2018-12-16T10:33:23.437Z,54.96
2018-12-16T10:35:51.772Z,54.96
2018-12-16T10:38:17.748Z,52.24
2018-12-16T10:40:43.641Z,50.62
2018-12-16T10:43:09.566Z,54.44
2018-12-16T10:45:35.492Z,54.83
2018-12-16T10:48:04.981Z,56.77
2018-12-16T10:50:30.880Z,57.56
2018-12-16T10:53:00.499Z,59.13
2018-12-16T10:55:26.376Z,60.17
2018-12-16T10:57:56.084Z,60.10
2018-12-16T11:00:28.257Z,59.69
2018-12-16T11:02:54.143Z,59.34
2018-12-16T11:05:20.207Z,56.83
2018-12-16T11:07:46.088Z,55.59
2018-12-16T11:10:12.391Z,54.79
2018-12-16T11:12:38.696Z,55.40
2018-12-16T11:15:04.730Z,55.02
2018-12-16T11:17:30.634Z,53.43
2018-12-16T11:19:56.514Z,53.68
2018-12-16T11:22:22.393Z,54.30
2018-12-16T11:24:49.995Z,54.49
2018-12-16T11:27:15.864Z,55.21
2018-12-16T11:29:45.823Z,55.21
2018-12-16T11:32:11.670Z,56.08
2018-12-16T11:34:40.563Z,57.41
2018-12-16T11:37:06.431Z,58.80
2018-12-16T11:39:33.468Z,57.63
2018-12-16T11:41:59.338Z,58.43
2018-12-16T11:44:27.905Z,59.10
2018-12-16T11:46:53.796Z,60.65
2018-12-16T11:49:22.682Z,62.42
2018-12-16T11:51:48.727Z,64.47
2018-12-16T11:54:14.619Z,67.08
2018-12-16T11:56:40.529Z,69.96
2018-12-16T11:59:06.401Z,72.40
2018-12-16T12:01:35.738Z,74.99
2018-12-16T12:04:03.630Z,76.96
2018-12-16T12:06:29.571Z,78.35
2018-12-16T12:08:55.477Z,78.93
2018-12-16T12:11:24.941Z,80.27
2018-12-16T12:13:50.813Z,81.59
2018-12-16T12:16:19.992Z,80.63
2018-12-16T12:18:49.924Z,81.13
2018-12-16T12:21:15.809Z,82.32
2018-12-16T12:23:41.723Z,82.09
2018-12-16T12:26:08.733Z,81.92
2018-12-16T12:28:35.000Z,81.11
2018-12-16T12:31:01.029Z,78.70
2018-12-16T12:33:26.924Z,77.55
2018-12-16T12:35:52.799Z,77.34
2018-12-16T12:38:20.617Z,76.83
2018-12-16T12:40:46.514Z,78.03
2018-12-16T12:43:16.643Z,77.86
2018-12-16T12:45:42.591Z,77.00
2018-12-16T12:48:09.323Z,77.62
2018-12-16T12:50:35.225Z,78.33
2018-12-16T12:53:03.916Z,78.78
2018-12-16T12:55:29.856Z,78.41
2018-12-16T12:57:59.319Z,78.94
2018-12-16T13:00:25.765Z,80.72
2018-12-16T13:02:55.347Z,79.36
2018-12-16T13:05:21.222Z,77.99
2018-12-16T13:07:47.129Z,78.00
2018-12-16T13:10:13.435Z,77.59
2018-12-16T13:12:39.326Z,77.58
2018-12-16T13:15:05.426Z,77.27
2018-12-16T13:17:31.791Z,77.49
2018-12-16T13:20:00.719Z,77.77
2018-12-16T13:22:26.641Z,77.15
2018-12-16T13:25:08.851Z,76.97
2018-12-16T13:27:38.144Z,75.92
2018-12-16T13:30:05.484Z,75.24
2018-12-16T13:32:31.473Z,75.47
2018-12-16T13:34:57.336Z,74.76
2018-12-16T13:37:23.275Z,74.85
2018-12-16T13:39:49.140Z,76.14
2018-12-16T13:42:15.036Z,77.01
2018-12-16T13:44:40.885Z,77.64
2018-12-16T13:47:06.779Z,78.13
2018-12-16T13:49:32.657Z,78.27
2018-12-16T13:51:58.560Z,78.36
2018-12-16T13:54:24.531Z,78.29
2018-12-16T13:56:50.425Z,75.63
2018-12-16T13:59:16.358Z,74.89
2018-12-16T14:01:42.208Z,74.00
2018-12-16T14:04:08.126Z,73.41
2018-12-16T14:06:35.137Z,73.41
2018-12-16T14:09:02.156Z,73.40
2018-12-16T14:11:29.985Z,72.58
2018-12-16T14:13:55.867Z,72.30
2018-12-16T14:16:25.391Z,72.68
2018-12-16T14:18:51.243Z,72.00
2018-12-16T14:21:17.133Z,72.27
2018-12-16T14:23:42.996Z,73.18
2018-12-16T14:26:09.137Z,74.13
2018-12-16T14:28:36.381Z,74.00
2018-12-16T14:31:02.368Z,72.93
2018-12-16T14:33:32.262Z,73.91
2018-12-16T14:35:58.114Z,74.10
2018-12-16T14:38:27.561Z,74.15
2018-12-16T14:40:53.518Z,73.68
2018-12-16T14:43:19.917Z,73.74
2018-12-16T14:45:45.846Z,73.01
2018-12-16T14:48:14.496Z,73.70
2018-12-16T14:50:40.396Z,73.98
2018-12-16T14:53:09.332Z,74.96
2018-12-16T14:55:35.224Z,75.61
2018-12-16T14:58:01.211Z,76.21
2018-12-16T15:00:27.079Z,77.17
2018-12-16T15:02:52.976Z,78.71
2018-12-16T15:05:21.889Z,79.86
2018-12-16T15:07:47.791Z,81.93
2018-12-16T15:10:16.788Z,81.90
2018-12-16T15:12:42.767Z,82.62
2018-12-16T15:15:12.269Z,84.40
2018-12-16T15:17:42.668Z,84.35
2018-12-16T15:20:06.310Z,84.15
2018-12-16T15:22:32.203Z,84.62
2018-12-16T15:25:00.431Z,84.44
2018-12-16T15:27:26.392Z,84.68
2018-12-16T15:29:55.919Z,85.05
2018-12-16T15:32:21.781Z,84.88
2018-12-16T15:34:47.653Z,85.45
2018-12-16T15:37:13.521Z,86.38
2018-12-16T15:39:39.404Z,86.77
2018-12-16T15:42:06.745Z,86.26
2018-12-16T15:44:32.856Z,85.91
2018-12-16T15:47:01.704Z,86.12
2018-12-16T15:49:27.583Z,85.83
2018-12-16T15:51:55.820Z,85.58
2018-12-16T15:54:21.869Z,86.32
2018-12-16T15:56:50.778Z,87.83
2018-12-16T15:59:16.712Z,87.64
2018-12-16T16:01:46.279Z,88.22
2018-12-16T16:04:12.788Z,87.81
2018-12-16T16:06:40.238Z,87.86
2018-12-16T16:09:06.247Z,87.16
2018-12-16T16:11:32.244Z,87.79
2018-12-16T16:13:58.233Z,87.31
2018-12-16T16:16:24.092Z,88.01
2018-12-16T16:18:53.742Z,87.26
2018-12-16T16:21:19.600Z,87.06
2018-12-16T16:23:47.328Z,88.29
2018-12-16T16:26:16.404Z,88.63
2018-12-16T16:28:41.207Z,90.51
2018-12-16T16:31:07.105Z,90.57
2018-12-16T16:33:38.215Z,90.39
2018-12-16T16:36:04.091Z,89.55
2018-12-16T16:38:30.968Z,90.17
2018-12-16T16:40:57.178Z,90.68
2018-12-16T16:43:27.039Z,91.44
2018-12-16T16:45:52.947Z,89.29
2018-12-16T16:48:18.827Z,90.22
2018-12-16T16:50:44.690Z,91.18
2018-12-16T16:53:10.718Z,91.56
2018-12-16T16:55:37.965Z,90.55
2018-12-16T16:58:03.929Z,90.51
2018-12-16T17:00:33.783Z,91.08
2018-12-16T17:02:59.692Z,90.05
2018-12-16T17:05:26.645Z,89.21
2018-12-16T17:07:52.524Z,88.93
2018-12-16T17:10:21.353Z,89.42
2018-12-16T17:12:47.278Z,89.56
2018-12-16T17:15:17.233Z,89.49
2018-12-16T17:17:43.126Z,89.21
2018-12-16T17:20:12.254Z,89.67
2018-12-16T17:22:38.177Z,90.19
2018-12-16T17:25:06.531Z,90.88
2018-12-16T17:27:32.427Z,90.75
2018-12-16T17:29:58.304Z,89.91
2018-12-16T17:32:24.182Z,90.90
2018-12-16T17:34:54.310Z,91.88
2018-12-16T17:37:20.201Z,92.82
2018-12-16T17:39:46.072Z,92.25
2018-12-16T17:42:11.945Z,92.26
2018-12-16T17:44:37.874Z,91.59
2018-12-16T17:47:06.864Z,91.84
2018-12-16T17:49:32.793Z,92.07
2018-12-16T17:52:01.717Z,91.61
2018-12-16T17:54:27.610Z,91.10
2018-12-16T17:56:56.305Z,90.98
2018-12-16T17:59:22.195Z,90.30
2018-12-16T18:01:48.384Z,91.40
2018-12-16T18:04:14.312Z,91.61
2018-12-16T18:06:40.168Z,92.52
2018-12-16T18:09:08.174Z,92.66
2018-12-16T18:11:34.192Z,92.26
2018-12-16T18:14:04.018Z,92.22
2018-12-16T18:16:29.934Z,92.36
2018-12-16T18:18:57.819Z,92.71
2018-12-16T18:21:23.748Z,92.64
2018-12-16T18:23:53.434Z,93.06
2018-12-16T18:26:19.305Z,93.00
2018-12-16T18:28:46.969Z,92.67
2018-12-16T18:31:12.892Z,92.28
2018-12-16T18:33:42.555Z,91.82
2018-12-16T18:36:08.531Z,91.92
2018-12-16T18:38:34.442Z,91.97
2018-12-16T18:41:00.372Z,92.62
2018-12-16T18:43:26.320Z,93.23
2018-12-16T18:45:53.468Z,92.78
2018-12-16T18:48:20.585Z,92.99
2018-12-16T18:50:48.010Z,92.48
2018-12-16T18:53:13.892Z,93.14
2018-12-16T18:55:42.507Z,93.37
2018-12-16T18:58:10.160Z,94.21
2018-12-16T19:00:37.524Z,95.06
2018-12-16T19:03:03.425Z,94.86
2018-12-16T19:05:31.809Z,94.04
2018-12-16T19:07:57.783Z,94.12
2018-12-16T19:10:27.574Z,94.01
2018-12-16T19:12:53.500Z,94.77
2018-12-16T19:15:19.984Z,94.24
2018-12-16T19:17:45.903Z,93.82
2018-12-16T19:20:11.805Z,94.11
2018-12-16T19:22:38.899Z,93.88
2018-12-16T19:25:04.905Z,93.59
2018-12-16T19:27:33.285Z,94.16
2018-12-16T19:29:59.193Z,93.34
2018-12-16T19:32:29.308Z,93.47
2018-12-16T19:34:55.232Z,92.80
2018-12-16T19:37:22.713Z,93.65
2018-12-16T19:39:48.589Z,93.93
2018-12-16T19:42:18.459Z,93.94
2018-12-16T19:44:44.362Z,93.45
2018-12-16T19:47:12.231Z,93.69
2018-12-16T19:49:38.126Z,93.51
2018-12-16T19:52:04.092Z,93.21
2018-12-16T19:54:30.301Z,93.19
2018-12-16T19:56:56.211Z,93.53
2018-12-16T19:59:25.595Z,94.45
2018-12-16T20:01:51.462Z,94.95
2018-12-16T20:04:20.403Z,95.21
2018-12-16T20:06:47.119Z,95.22
2018-12-16T20:09:13.340Z,94.40
2018-12-16T20:11:39.237Z,94.15
2018-12-16T20:14:08.991Z,93.83
2018-12-16T20:16:34.906Z,94.18
2018-12-16T20:19:04.106Z,94.12
2018-12-16T20:21:30.004Z,93.53
2018-12-16T20:23:57.793Z,92.75
2018-12-16T20:26:23.697Z,91.97
2018-12-16T20:28:49.559Z,92.52
2018-12-16T20:31:15.467Z,92.70
2018-12-16T20:33:41.363Z,93.03
2018-12-16T20:36:10.780Z,93.40
2018-12-16T20:38:36.707Z,93.16
2018-12-16T20:41:04.780Z,93.31
2018-12-16T20:43:30.722Z,93.32
2018-12-16T20:46:00.462Z,93.54
2018-12-16T20:48:26.384Z,93.85
2018-12-16T20:50:53.105Z,93.33
2018-12-16T20:53:19.004Z,92.41
2018-12-16T20:55:48.052Z,92.13
2018-12-16T20:58:13.960Z,92.66
2018-12-16T21:00:43.525Z,92.92
2018-12-16T21:03:09.440Z,92.80
2018-12-16T21:05:35.307Z,92.64
2018-12-16T21:08:01.231Z,92.16
2018-12-16T21:10:27.118Z,92.69
2018-12-16T21:13:01.093Z,92.33
2018-12-16T21:15:33.283Z,92.45
2018-12-16T21:18:05.399Z,92.01
2018-12-16T21:20:31.337Z,92.72
2018-12-16T21:22:57.286Z,92.56
2018-12-16T21:25:23.133Z,92.98
2018-12-16T21:27:52.857Z,93.87
2018-12-16T21:30:18.786Z,94.00
2018-12-16T21:32:44.711Z,94.16
2018-12-16T21:35:10.572Z,93.22
2018-12-16T21:37:36.500Z,93.07
2018-12-16T21:40:03.335Z,93.22
2018-12-16T21:42:29.183Z,93.63
2018-12-16T21:44:55.883Z,94.00
2018-12-16T21:47:21.749Z,93.88
2018-12-16T21:49:47.762Z,93.66
2018-12-16T21:52:13.654Z,94.23
2018-12-16T21:54:39.516Z,93.63
2018-12-16T21:57:05.539Z,93.45
2018-12-16T21:59:31.593Z,93.53
2018-12-16T22:01:57.490Z,94.16
2018-12-16T22:04:23.990Z,94.84
2018-12-16T22:06:49.912Z,93.86
2018-12-16T22:09:18.433Z,92.84
2018-12-16T22:11:44.476Z,93.77
2018-12-16T22:14:14.550Z,93.77
2018-12-16T22:16:40.439Z,94.15
2018-12-16T22:19:06.347Z,94.22
2018-12-16T22:21:32.258Z,93.67
2018-12-16T22:23:58.156Z,93.09
2018-12-16T22:26:25.349Z,93.03
2018-12-16T22:28:51.370Z,93.07
2018-12-16T22:31:19.777Z,93.20
2018-12-16T22:33:45.666Z,93.66
2018-12-16T22:36:14.478Z,93.80
2018-12-16T22:38:40.342Z,94.21
2018-12-16T22:41:09.043Z,94.61
2018-12-16T22:43:34.918Z,95.06
2018-12-16T22:46:03.631Z,94.78
2018-12-16T22:48:29.491Z,94.92
2018-12-16T22:50:59.188Z,94.81
2018-12-16T22:53:25.092Z,94.59
2018-12-16T22:55:50.959Z,94.03
2018-12-16T22:58:16.832Z,94.73
2018-12-16T23:00:49.877Z,95.86
2018-12-16T23:03:15.768Z,95.28
2018-12-16T23:05:41.698Z,95.05
2018-12-16T23:08:07.644Z,95.65
2018-12-16T23:10:33.552Z,94.75
2018-12-16T23:13:00.391Z,95.11
2018-12-16T23:15:26.258Z,94.62
2018-12-16T23:17:56.090Z,95.53
2018-12-16T23:20:24.086Z,95.52
2018-12-16T23:22:50.056Z,95.70
2018-12-16T23:25:16.383Z,95.26
2018-12-16T23:27:45.658Z,95.40
2018-12-16T23:30:11.533Z,95.43
2018-12-16T23:32:37.440Z,95.49
2018-12-16T23:35:03.639Z,96.01
2018-12-16T23:37:29.570Z,95.76
2018-12-16T23:39:56.587Z,95.28
2018-12-16T23:42:22.471Z,94.98
2018-12-16T23:44:51.408Z,94.61
2018-12-16T23:47:17.264Z,94.87
2018-12-16T23:49:47.065Z,94.45
2018-12-16T23:52:13.039Z,94.61
2018-12-16T23:54:40.816Z,94.87
2018-12-16T23:57:06.847Z,94.86
2018-12-16T23:59:36.252Z,94.72
